createdAt,value
2016-05-24T00:00:10.029Z,54.66
2016-05-24T00:01:10.047Z,54.66
2016-05-24T00:02:10.082Z,54.63
2016-05-24T00:03:10.099Z,54.72
2016-05-24T00:04:10.118Z,54.66
2016-05-24T00:05:09.995Z,54.66
2016-05-24T00:06:10.170Z,54.53
2016-05-24T00:07:10.203Z,54.63
2016-05-24T00:08:10.222Z,54.82
2016-05-24T00:09:10.256Z,54.91
2016-05-24T00:10:10.275Z,54.82
2016-05-24T00:11:10.152Z,54.56
2016-05-24T00:12:10.327Z,54.75
2016-05-24T00:13:10.345Z,54.91
2016-05-24T00:14:10.378Z,54.94
2016-05-24T00:15:10.241Z,54.75
2016-05-24T00:16:10.416Z,54.72
2016-05-24T00:17:10.450Z,54.91
2016-05-24T00:18:10.468Z,54.82
2016-05-24T00:19:10.486Z,54.72
2016-05-24T00:20:10.520Z,54.94
2016-05-24T00:21:10.539Z,54.82
2016-05-24T00:22:10.572Z,54.91
2016-05-24T00:23:10.591Z,54.85
2016-05-24T00:24:10.609Z,54.72
2016-05-24T00:25:10.643Z,55.04
2016-05-24T00:26:10.676Z,54.94
2016-05-24T00:27:10.524Z,54.85
2016-05-24T00:28:10.713Z,54.63
2016-05-24T00:29:10.732Z,54.82
2016-05-24T00:30:10.984Z,54.72
2016-05-24T00:31:10.629Z,54.82
2016-05-24T00:32:10.802Z,54.91
2016-05-24T00:33:10.837Z,54.82
2016-05-24T00:34:10.870Z,54.91
2016-05-24T00:35:10.873Z,54.94
2016-05-24T00:36:10.906Z,54.85
2016-05-24T00:37:10.925Z,54.91
2016-05-24T00:38:10.943Z,54.82
2016-05-24T00:39:10.962Z,54.82
2016-05-24T00:40:10.996Z,54.91
2016-05-24T00:41:11.030Z,54.82
2016-05-24T00:42:11.048Z,55.33
2016-05-24T00:43:11.066Z,54.82
2016-05-24T00:44:11.116Z,54.82
2016-05-24T00:45:11.431Z,55.11
2016-05-24T00:46:11.153Z,54.85
2016-05-24T00:47:11.171Z,55.11
2016-05-24T00:48:11.189Z,54.82
2016-05-24T00:49:11.223Z,55.11
2016-05-24T00:50:11.242Z,55.11
2016-05-24T00:51:11.260Z,55.11
2016-05-24T00:52:11.294Z,54.82
2016-05-24T00:53:11.312Z,55.11
2016-05-24T00:54:11.330Z,55.01
2016-05-24T00:55:11.364Z,55.11
2016-05-24T00:56:11.383Z,55.11
2016-05-24T00:57:11.401Z,55.11
2016-05-24T00:58:11.435Z,55.11
2016-05-24T00:59:11.453Z,55.13
2016-05-24T01:00:11.498Z,55.11
2016-05-24T01:01:11.544Z,55.01
2016-05-24T01:02:11.607Z,55.01
2016-05-24T01:03:11.654Z,55.23
2016-05-24T01:04:11.716Z,54.85
2016-05-24T01:05:11.740Z,55.13
2016-05-24T01:06:11.784Z,54.91
2016-05-24T01:07:11.811Z,54.85
2016-05-24T01:08:11.857Z,54.91
2016-05-24T01:09:11.885Z,55.01
2016-05-24T01:10:11.911Z,55.21
2016-05-24T01:11:11.948Z,55.11
2016-05-24T01:12:11.971Z,54.91
2016-05-24T01:13:12.008Z,55.11
2016-05-24T01:14:12.031Z,54.91
2016-05-24T01:15:11.990Z,55.11
2016-05-24T01:16:12.087Z,55.13
2016-05-24T01:17:12.106Z,55.21
2016-05-24T01:18:12.141Z,55.01
2016-05-24T01:19:12.160Z,55.11
2016-05-24T01:20:12.180Z,55.21
2016-05-24T01:21:12.231Z,55.21
2016-05-24T01:22:12.233Z,55.01
2016-05-24T01:23:12.252Z,55.01
2016-05-24T01:24:12.285Z,55.04
2016-05-24T01:25:12.305Z,54.82
2016-05-24T01:26:12.323Z,54.82
2016-05-24T01:27:12.358Z,54.82
2016-05-24T01:28:12.376Z,54.91
2016-05-24T01:29:12.411Z,54.82
2016-05-24T01:30:12.460Z,54.91
2016-05-24T01:31:12.448Z,54.82
2016-05-24T01:32:12.482Z,54.91
2016-05-24T01:33:12.500Z,54.72
2016-05-24T01:34:12.533Z,54.91
2016-05-24T01:35:12.396Z,54.72
2016-05-24T01:36:12.569Z,54.91
2016-05-24T01:37:12.605Z,54.72
2016-05-24T01:38:12.623Z,54.72
2016-05-24T01:39:12.657Z,54.82
2016-05-24T01:40:12.519Z,54.82
2016-05-24T01:41:12.537Z,54.53
2016-05-24T01:42:12.727Z,55.01
2016-05-24T01:43:12.745Z,54.82
2016-05-24T01:44:12.780Z,55.01
2016-05-24T01:45:12.657Z,54.63
2016-05-24T01:46:12.816Z,54.82
2016-05-24T01:47:12.849Z,54.72
2016-05-24T01:48:12.868Z,54.91
2016-05-24T01:49:12.902Z,54.82
2016-05-24T01:50:12.921Z,54.82
2016-05-24T01:51:12.954Z,55.11
2016-05-24T01:52:12.817Z,54.53
2016-05-24T01:53:12.990Z,55.11
2016-05-24T01:54:13.009Z,54.82
2016-05-24T01:55:13.028Z,55.11
2016-05-24T01:56:13.062Z,54.63
2016-05-24T01:57:13.080Z,55.3
2016-05-24T01:58:13.114Z,54.82
2016-05-24T01:59:13.132Z,54.72
2016-05-24T02:00:13.151Z,55.3
2016-05-24T02:01:13.216Z,55.3
2016-05-24T02:02:13.047Z,55.3
2016-05-24T02:03:13.221Z,55.21
2016-05-24T02:04:13.255Z,55.21
2016-05-24T02:05:13.272Z,55.01
2016-05-24T02:06:13.308Z,55.11
2016-05-24T02:07:13.170Z,54.82
2016-05-24T02:08:13.344Z,55.3
2016-05-24T02:09:13.377Z,55.01
2016-05-24T02:10:13.411Z,55.21
2016-05-24T02:11:13.414Z,55.11
2016-05-24T02:12:13.449Z,55.21
2016-05-24T02:13:13.467Z,55.01
2016-05-24T02:14:13.501Z,55.21
2016-05-24T02:15:13.519Z,55.01
2016-05-24T02:16:13.552Z,55.01
2016-05-24T02:17:13.571Z,55.21
2016-05-24T02:18:13.605Z,55.11
2016-05-24T02:19:13.451Z,55.21
2016-05-24T02:20:13.643Z,55.11
2016-05-24T02:21:13.504Z,54.72
2016-05-24T02:22:13.678Z,55.21
2016-05-24T02:23:13.712Z,55.21
2016-05-24T02:24:13.746Z,55.11
2016-05-24T02:25:13.765Z,55.11
2016-05-24T02:26:13.783Z,54.91
2016-05-24T02:27:13.817Z,55.11
2016-05-24T02:28:13.835Z,55.4
2016-05-24T02:29:13.854Z,55.01
2016-05-24T02:30:13.887Z,55.21
2016-05-24T02:31:13.906Z,55.21
2016-05-24T02:32:13.924Z,55.01
2016-05-24T02:33:13.958Z,54.91
2016-05-24T02:34:13.819Z,55.11
2016-05-24T02:35:14.011Z,55.11
2016-05-24T02:36:14.028Z,55.4
2016-05-24T02:37:14.047Z,55.11
2016-05-24T02:38:14.080Z,55.01
2016-05-24T02:39:14.099Z,55.3
2016-05-24T02:40:14.133Z,54.91
2016-05-24T02:41:14.152Z,55.21
2016-05-24T02:42:14.170Z,55.11
2016-05-24T02:43:14.204Z,54.91
2016-05-24T02:44:14.221Z,55.68
2016-05-24T02:45:14.240Z,55.21
2016-05-24T02:46:14.274Z,55.49
2016-05-24T02:47:14.293Z,55.3
2016-05-24T02:48:14.311Z,54.91
2016-05-24T02:49:14.345Z,55.49
2016-05-24T02:50:14.426Z,54.91
2016-05-24T02:51:14.303Z,55.01
2016-05-24T02:52:14.415Z,55.78
2016-05-24T02:53:14.496Z,55.4
2016-05-24T02:54:14.468Z,55.3
2016-05-24T02:55:14.486Z,55.49
2016-05-24T02:56:14.504Z,54.91
2016-05-24T02:57:14.538Z,55.49
2016-05-24T02:58:14.557Z,55.21
2016-05-24T02:59:14.575Z,55.4
2016-05-24T03:00:14.609Z,55.21
2016-05-24T03:01:14.627Z,54.91
2016-05-24T03:02:14.661Z,54.82
2016-05-24T03:03:14.679Z,55.21
2016-05-24T03:04:14.714Z,55.49
2016-05-24T03:05:14.731Z,55.49
2016-05-24T03:06:14.750Z,55.3
2016-05-24T03:07:14.784Z,55.49
2016-05-24T03:08:14.786Z,55.49
2016-05-24T03:09:14.680Z,55.4
2016-05-24T03:10:14.855Z,55.3
2016-05-24T03:11:14.872Z,55.3
2016-05-24T03:12:14.891Z,55.21
2016-05-24T03:13:14.924Z,55.3
2016-05-24T03:14:15.021Z,55.3
2016-05-24T03:15:15.102Z,55.58
2016-05-24T03:16:14.996Z,55.3
2016-05-24T03:17:14.858Z,55.68
2016-05-24T03:18:14.876Z,55.49
2016-05-24T03:19:15.065Z,55.78
2016-05-24T03:20:15.099Z,55.78
2016-05-24T03:21:15.102Z,55.4
2016-05-24T03:22:15.137Z,55.87
2016-05-24T03:23:15.155Z,55.49
2016-05-24T03:24:15.189Z,55.49
2016-05-24T03:25:15.207Z,55.49
2016-05-24T03:26:15.226Z,55.58
2016-05-24T03:27:15.259Z,55.78
2016-05-24T03:28:15.293Z,55.56
2016-05-24T03:29:15.296Z,55.68
2016-05-24T03:30:15.220Z,55.68
2016-05-24T03:31:15.348Z,55.68
2016-05-24T03:32:15.382Z,55.3
2016-05-24T03:33:15.400Z,55.3
2016-05-24T03:34:15.419Z,55.4
2016-05-24T03:35:15.453Z,55.4
2016-05-24T03:36:15.471Z,55.4
2016-05-24T03:37:15.490Z,55.3
2016-05-24T03:38:15.523Z,55.4
2016-05-24T03:39:15.542Z,55.3
2016-05-24T03:40:15.560Z,55.4
2016-05-24T03:41:15.594Z,55.58
2016-05-24T03:42:15.612Z,55.3
2016-05-24T03:43:15.631Z,55.58
2016-05-24T03:44:15.664Z,55.4
2016-05-24T03:45:15.683Z,55.4
2016-05-24T03:46:15.716Z,55.3
2016-05-24T03:47:15.735Z,55.58
2016-05-24T03:48:15.753Z,55.46
2016-05-24T03:49:15.772Z,55.46
2016-05-24T03:50:15.805Z,55.49
2016-05-24T03:51:15.840Z,55.46
2016-05-24T03:52:15.857Z,55.4
2016-05-24T03:53:15.721Z,55.49
2016-05-24T03:54:15.910Z,55.36
2016-05-24T03:55:15.944Z,55.46
2016-05-24T03:56:15.946Z,55.58
2016-05-24T03:57:15.965Z,55.4
2016-05-24T03:58:15.843Z,55.4
2016-05-24T03:59:16.017Z,55.56
2016-05-24T04:00:16.051Z,55.49
2016-05-24T04:01:15.914Z,55.58
2016-05-24T04:02:16.087Z,55.58
2016-05-24T04:03:16.122Z,55.36
2016-05-24T04:04:16.156Z,55.4
2016-05-24T04:05:16.175Z,55.4
2016-05-24T04:06:16.192Z,55.36
2016-05-24T04:07:16.211Z,55.27
2016-05-24T04:08:16.244Z,55.4
2016-05-24T04:09:16.263Z,55.36
2016-05-24T04:10:16.125Z,55.4
2016-05-24T04:11:16.300Z,55.4
2016-05-24T04:12:16.333Z,55.21
2016-05-24T04:13:16.352Z,55.49
2016-05-24T04:14:16.385Z,55.27
2016-05-24T04:15:16.419Z,55.3
2016-05-24T04:16:16.423Z,55.27
2016-05-24T04:17:16.457Z,55.3
2016-05-24T04:18:16.475Z,55.27
2016-05-24T04:19:16.493Z,55.27
2016-05-24T04:20:16.526Z,55.49
2016-05-24T04:21:16.561Z,55.4
2016-05-24T04:22:16.579Z,55.49
2016-05-24T04:23:16.598Z,55.21
2016-05-24T04:24:16.632Z,55.56
2016-05-24T04:25:16.649Z,55.78
2016-05-24T04:26:16.512Z,55.58
2016-05-24T04:27:16.686Z,55.68
2016-05-24T04:28:16.721Z,55.68
2016-05-24T04:29:16.739Z,55.49
2016-05-24T04:30:16.757Z,55.49
2016-05-24T04:31:16.790Z,55.4
2016-05-24T04:32:16.809Z,55.87
2016-05-24T04:33:16.828Z,55.78
2016-05-24T04:34:16.862Z,55.68
2016-05-24T04:35:16.723Z,55.58
2016-05-24T04:36:16.914Z,55.58
2016-05-24T04:37:16.775Z,55.49
2016-05-24T04:38:16.966Z,55.3
2016-05-24T04:39:16.984Z,55.3
2016-05-24T04:40:17.003Z,55.3
2016-05-24T04:41:17.021Z,55.49
2016-05-24T04:42:17.055Z,55.4
2016-05-24T04:43:17.088Z,55.49
2016-05-24T04:44:17.108Z,55.49
2016-05-24T04:45:17.125Z,55.49
2016-05-24T04:46:17.160Z,55.21
2016-05-24T04:47:17.177Z,55.4
2016-05-24T04:48:17.196Z,55.3
2016-05-24T04:49:17.213Z,54.91
2016-05-24T04:50:17.249Z,55.21
2016-05-24T04:51:17.267Z,55.01
2016-05-24T04:52:17.301Z,55.49
2016-05-24T04:53:17.318Z,55.11
2016-05-24T04:54:17.181Z,55.4
2016-05-24T04:55:17.371Z,55.01
2016-05-24T04:56:17.390Z,54.91
2016-05-24T04:57:17.252Z,55.01
2016-05-24T04:58:17.442Z,55.4
2016-05-24T04:59:17.459Z,55.3
2016-05-24T05:00:17.698Z,55.11
2016-05-24T05:01:17.512Z,55.01
2016-05-24T05:02:17.531Z,55.3
2016-05-24T05:03:17.549Z,55.21
2016-05-24T05:04:17.583Z,55.11
2016-05-24T05:05:17.445Z,54.63
2016-05-24T05:06:17.634Z,54.53
2016-05-24T05:07:17.653Z,54.63
2016-05-24T05:08:17.672Z,54.82
2016-05-24T05:09:17.706Z,54.63
2016-05-24T05:10:17.724Z,54.63
2016-05-24T05:11:17.742Z,54.91
2016-05-24T05:12:17.776Z,54.82
2016-05-24T05:13:17.795Z,55.11
2016-05-24T05:14:17.813Z,54.91
2016-05-24T05:15:17.847Z,55.01
2016-05-24T05:16:17.865Z,54.82
2016-05-24T05:17:17.899Z,55.21
2016-05-24T05:18:17.933Z,55.21
2016-05-24T05:19:17.780Z,55.01
2016-05-24T05:20:17.969Z,54.53
2016-05-24T05:21:18.004Z,54.82
2016-05-24T05:22:18.022Z,54.91
2016-05-24T05:23:18.056Z,54.24
2016-05-24T05:24:18.057Z,54.24
2016-05-24T05:25:18.093Z,54.46
2016-05-24T05:26:18.111Z,53.99
2016-05-24T05:27:18.129Z,54.17
2016-05-24T05:28:18.162Z,53.99
2016-05-24T05:29:18.196Z,54.17
2016-05-24T05:30:18.215Z,53.5
2016-05-24T05:31:18.234Z,53.03
2016-05-24T05:32:18.251Z,53.31
2016-05-24T05:33:18.130Z,53.6
2016-05-24T05:34:18.304Z,52.74
2016-05-24T05:35:18.322Z,52.86
2016-05-24T05:36:18.357Z,52.48
2016-05-24T05:37:18.375Z,52.28
2016-05-24T05:38:18.408Z,52.19
2016-05-24T05:39:18.427Z,51.71
2016-05-24T05:40:18.461Z,52
2016-05-24T05:41:18.479Z,51.61
2016-05-24T05:42:18.513Z,51.32
2016-05-24T05:43:18.547Z,51.35
2016-05-24T05:44:18.566Z,51.14
2016-05-24T05:45:19.146Z,51.04
2016-05-24T05:46:18.602Z,50.96
2016-05-24T05:47:18.619Z,50.68
2016-05-24T05:48:18.654Z,51.06
2016-05-24T05:49:18.689Z,50.78
2016-05-24T05:50:18.738Z,50.29
2016-05-24T05:51:18.725Z,50.39
2016-05-24T05:52:18.758Z,50.13
2016-05-24T05:53:18.777Z,50.23
2016-05-24T05:54:18.810Z,49.55
2016-05-24T05:55:18.829Z,49.84
2016-05-24T05:56:18.863Z,49.36
2016-05-24T05:57:18.882Z,49.55
2016-05-24T05:58:18.899Z,49.65
2016-05-24T05:59:18.934Z,49.26
2016-05-24T06:00:18.968Z,48.88
2016-05-24T06:01:18.986Z,48.79
2016-05-24T06:02:19.020Z,49.46
2016-05-24T06:03:18.881Z,49.29
2016-05-24T06:04:19.057Z,48.52
2016-05-24T06:05:19.090Z,48.81
2016-05-24T06:06:19.109Z,48.71
2016-05-24T06:07:19.142Z,48.9
2016-05-24T06:08:19.161Z,48.43
2016-05-24T06:09:19.194Z,48.43
2016-05-24T06:10:19.056Z,48.81
2016-05-24T06:11:19.654Z,48.71
2016-05-24T06:12:19.281Z,48.33
2016-05-24T06:13:24.893Z,48.43
2016-05-24T06:14:19.553Z,48.23
2016-05-24T06:15:19.367Z,48.43
2016-05-24T06:16:20.026Z,48.33
2016-05-24T06:17:19.404Z,48.52
2016-05-24T06:18:19.422Z,48.43
2016-05-24T06:19:19.456Z,48.43
2016-05-24T06:20:19.475Z,48.43
2016-05-24T06:21:19.493Z,48.33
2016-05-24T06:22:19.527Z,48.13
2016-05-24T06:23:19.560Z,48.13
2016-05-24T06:24:19.579Z,48.13
2016-05-24T06:25:19.441Z,48.13
2016-05-24T06:26:19.632Z,48.13
2016-05-24T06:27:19.493Z,48.13
2016-05-24T06:28:19.684Z,48.23
2016-05-24T06:29:19.702Z,48.13
2016-05-24T06:30:20.282Z,48.52
2016-05-24T06:31:19.754Z,47.75
2016-05-24T06:32:19.788Z,48.43
2016-05-24T06:33:19.651Z,47.66
2016-05-24T06:34:19.840Z,48.61
2016-05-24T06:35:19.859Z,48.43
2016-05-24T06:36:19.893Z,48.33
2016-05-24T06:37:19.911Z,48.43
2016-05-24T06:38:19.945Z,48.52
2016-05-24T06:39:19.964Z,48.13
2016-05-24T06:40:19.998Z,48.33
2016-05-24T06:41:20.015Z,47.94
2016-05-24T06:42:20.033Z,48.33
2016-05-24T06:43:20.083Z,48.43
2016-05-24T06:44:20.086Z,48.23
2016-05-24T06:45:20.136Z,48.13
2016-05-24T06:46:20.139Z,48.43
2016-05-24T06:47:20.172Z,48.43
2016-05-24T06:48:20.191Z,48.52
2016-05-24T06:49:20.225Z,48.33
2016-05-24T06:50:20.244Z,48.52
2016-05-24T06:51:20.277Z,48.43
2016-05-24T06:52:20.295Z,48.33
2016-05-24T06:53:20.344Z,48.23
2016-05-24T06:54:20.363Z,48.43
2016-05-24T06:55:20.397Z,48.52
2016-05-24T06:56:20.415Z,48.43
2016-05-24T06:57:20.527Z,48.33
2016-05-24T06:58:20.561Z,48.33
2016-05-24T06:59:20.486Z,48.52
2016-05-24T07:00:21.521Z,48.33
2016-05-24T07:01:20.552Z,48.43
2016-05-24T07:02:20.569Z,48.33
2016-05-24T07:03:20.588Z,48.43
2016-05-24T07:04:20.606Z,48.43
2016-05-24T07:05:20.640Z,48.43
2016-05-24T07:06:20.659Z,48.23
2016-05-24T07:07:20.692Z,48.81
2016-05-24T07:08:20.710Z,48.71
2016-05-24T07:09:20.745Z,48.71
2016-05-24T07:10:20.763Z,48.81
2016-05-24T07:11:20.781Z,48.71
2016-05-24T07:12:20.815Z,48.71
2016-05-24T07:13:20.693Z,48.71
2016-05-24T07:14:20.712Z,48.81
2016-05-24T07:15:21.323Z,48.71
2016-05-24T07:16:20.919Z,48.33
2016-05-24T07:17:21.000Z,48.43
2016-05-24T07:18:21.050Z,48.43
2016-05-24T07:19:20.989Z,48.43
2016-05-24T07:20:21.024Z,48.33
2016-05-24T07:21:21.058Z,48.43
2016-05-24T07:22:21.077Z,48.43
2016-05-24T07:23:21.157Z,48.43
2016-05-24T07:24:21.128Z,48.43
2016-05-24T07:25:21.163Z,48.43
2016-05-24T07:26:21.197Z,48.43
2016-05-24T07:27:21.246Z,48.43
2016-05-24T07:28:21.296Z,48.52
2016-05-24T07:29:21.267Z,48.43
2016-05-24T07:30:21.441Z,48.43
2016-05-24T07:31:21.304Z,48.43
2016-05-24T07:32:21.431Z,48.61
2016-05-24T07:33:21.356Z,48.43
2016-05-24T07:34:21.234Z,48.33
2016-05-24T07:35:21.424Z,48.33
2016-05-24T07:36:21.442Z,48.13
2016-05-24T07:37:21.507Z,48.13
2016-05-24T07:38:21.338Z,48.13
2016-05-24T07:39:21.513Z,48.13
2016-05-24T07:40:21.390Z,48.43
2016-05-24T07:41:21.565Z,48.23
2016-05-24T07:42:21.598Z,47.75
2016-05-24T07:43:21.617Z,47.75
2016-05-24T07:44:21.651Z,47.94
2016-05-24T07:45:21.528Z,47.94
2016-05-24T07:46:21.704Z,47.85
2016-05-24T07:47:21.722Z,47.85
2016-05-24T07:48:21.755Z,48.04
2016-05-24T07:49:21.618Z,48.04
2016-05-24T07:50:22.527Z,47.56
2016-05-24T07:51:21.826Z,47.75
2016-05-24T07:52:21.704Z,47.36
2016-05-24T07:53:21.878Z,47.36
2016-05-24T07:54:21.913Z,47.36
2016-05-24T07:55:24.527Z,47.08
2016-05-24T07:56:22.011Z,47.39
2016-05-24T07:57:21.999Z,47.1
2016-05-24T07:58:21.861Z,47.2
2016-05-24T07:59:22.035Z,47
2016-05-24T08:00:23.663Z,47.2
2016-05-24T08:01:22.134Z,46.91
2016-05-24T08:02:22.121Z,46.62
2016-05-24T08:03:22.140Z,47.3
2016-05-24T08:04:22.174Z,46.62
2016-05-24T08:05:23.474Z,46.23
2016-05-24T08:06:22.226Z,46.43
2016-05-24T08:07:22.260Z,46.23
2016-05-24T08:08:22.278Z,46.23
2016-05-24T08:09:22.296Z,46.53
2016-05-24T08:10:22.737Z,46.23
2016-05-24T08:11:22.349Z,46.14
2016-05-24T08:12:22.382Z,46.14
2016-05-24T08:13:22.432Z,46.04
2016-05-24T08:14:22.435Z,46.14
2016-05-24T08:15:24.187Z,45.76
2016-05-24T08:16:22.581Z,45.95
2016-05-24T08:17:22.506Z,45.78
2016-05-24T08:18:22.540Z,46.06
2016-05-24T08:19:22.558Z,45.78
2016-05-24T08:20:23.341Z,45.95
2016-05-24T08:21:22.688Z,45.68
2016-05-24T08:22:22.660Z,45.66
2016-05-24T08:23:22.600Z,45.2
2016-05-24T08:24:22.697Z,45.2
2016-05-24T08:25:23.247Z,45.29
2016-05-24T08:26:22.592Z,45.39
2016-05-24T08:27:22.766Z,45.68
2016-05-24T08:28:22.800Z,45.47
2016-05-24T08:29:22.819Z,45.49
2016-05-24T08:30:22.869Z,45.49
2016-05-24T08:31:22.871Z,45.49
2016-05-24T08:32:23.015Z,45.39
2016-05-24T08:33:22.924Z,45.78
2016-05-24T08:34:22.957Z,45.78
2016-05-24T08:35:22.851Z,45.68
2016-05-24T08:36:23.010Z,45.78
2016-05-24T08:37:23.044Z,45.49
2016-05-24T08:38:23.062Z,45.59
2016-05-24T08:39:23.096Z,45.87
2016-05-24T08:40:23.114Z,45.39
2016-05-24T08:41:23.179Z,45.49
2016-05-24T08:42:23.010Z,45.49
2016-05-24T08:43:23.185Z,45.49
2016-05-24T08:44:23.219Z,44.91
2016-05-24T08:45:25.003Z,44.91
2016-05-24T08:46:23.271Z,45.01
2016-05-24T08:47:23.289Z,45.01
2016-05-24T08:48:23.323Z,45.01
2016-05-24T08:49:23.341Z,45.1
2016-05-24T08:50:23.453Z,45.1
2016-05-24T08:51:23.395Z,45.39
2016-05-24T08:52:23.444Z,45.49
2016-05-24T08:53:23.289Z,45.2
2016-05-24T08:54:23.480Z,44.72
2016-05-24T08:55:25.452Z,44.72
2016-05-24T08:56:23.532Z,44.91
2016-05-24T08:57:23.567Z,44.62
2016-05-24T08:58:23.585Z,44.53
2016-05-24T08:59:23.603Z,44.72
2016-05-24T09:00:26.324Z,44.65
2016-05-24T09:01:23.671Z,44.72
2016-05-24T09:02:23.689Z,44.53
2016-05-24T09:03:23.551Z,44.24
2016-05-24T09:04:23.742Z,43.95
2016-05-24T09:05:23.635Z,44.17
2016-05-24T09:06:23.793Z,44.05
2016-05-24T09:07:23.827Z,44.17
2016-05-24T09:08:23.690Z,44.14
2016-05-24T09:09:23.724Z,44.14
2016-05-24T09:10:23.945Z,44.05
2016-05-24T09:11:23.932Z,44.17
2016-05-24T09:12:23.951Z,44.24
2016-05-24T09:13:23.907Z,44.14
2016-05-24T09:14:24.018Z,44.26
2016-05-24T09:15:24.349Z,44.35
2016-05-24T09:16:24.055Z,44.05
2016-05-24T09:17:23.932Z,44.26
2016-05-24T09:18:24.107Z,44.07
2016-05-24T09:19:24.141Z,44.07
2016-05-24T09:20:24.847Z,44.35
2016-05-24T09:21:24.193Z,44.35
2016-05-24T09:22:24.071Z,44.17
2016-05-24T09:23:24.245Z,44.17
2016-05-24T09:24:24.280Z,44.07
2016-05-24T09:25:24.579Z,44.24
2016-05-24T09:26:24.317Z,44.24
2016-05-24T09:27:24.350Z,43.85
2016-05-24T09:28:24.383Z,44.35
2016-05-24T09:29:24.403Z,44.26
2016-05-24T09:30:26.030Z,44.07
2016-05-24T09:31:24.470Z,44.24
2016-05-24T09:32:24.333Z,44.24
2016-05-24T09:33:24.522Z,44.34
2016-05-24T09:34:24.385Z,44.24
2016-05-24T09:35:24.419Z,44.14
2016-05-24T09:36:24.577Z,44.35
2016-05-24T09:37:24.610Z,44.24
2016-05-24T09:38:24.724Z,44.24
2016-05-24T09:39:24.663Z,44.07
2016-05-24T09:40:24.698Z,44.05
2016-05-24T09:41:24.716Z,44.14
2016-05-24T09:42:24.749Z,44.26
2016-05-24T09:43:24.768Z,44.17
2016-05-24T09:44:24.802Z,43.97
2016-05-24T09:45:25.961Z,44.17
2016-05-24T09:46:24.698Z,44.35
2016-05-24T09:47:24.872Z,44.17
2016-05-24T09:48:24.907Z,44.17
2016-05-24T09:49:24.926Z,43.59
2016-05-24T09:50:25.192Z,43.49
2016-05-24T09:51:24.978Z,43.78
2016-05-24T09:52:25.058Z,43.59
2016-05-24T09:53:25.029Z,43.78
2016-05-24T09:54:25.064Z,43.88
2016-05-24T09:55:31.209Z,43.49
2016-05-24T09:56:25.100Z,43.59
2016-05-24T09:57:24.978Z,43.68
2016-05-24T09:58:25.167Z,43.78
2016-05-24T09:59:25.186Z,43.78
2016-05-24T10:00:26.673Z,43.4
2016-05-24T10:01:25.286Z,43.2
2016-05-24T10:02:25.116Z,43.49
2016-05-24T10:03:25.369Z,43.2
2016-05-24T10:04:25.419Z,42.84
2016-05-24T10:05:25.343Z,43.03
2016-05-24T10:06:25.376Z,43.23
2016-05-24T10:07:25.409Z,43.13
2016-05-24T10:08:25.465Z,43.23
2016-05-24T10:09:25.364Z,43.41
2016-05-24T10:10:25.561Z,43.13
2016-05-24T10:11:25.633Z,42.93
2016-05-24T10:12:25.757Z,42.84
2016-05-24T10:13:25.690Z,43.13
2016-05-24T10:14:25.826Z,42.55
2016-05-24T10:15:26.945Z,42.55
2016-05-24T10:16:25.785Z,42.55
2016-05-24T10:17:25.824Z,42.65
2016-05-24T10:18:25.861Z,42.65
2016-05-24T10:19:25.881Z,42.36
2016-05-24T10:20:25.902Z,42.26
2016-05-24T10:21:25.877Z,42.26
2016-05-24T10:22:25.975Z,42.16
2016-05-24T10:23:25.885Z,42.07
2016-05-24T10:24:26.029Z,41.97
2016-05-24T10:25:26.048Z,41.71
2016-05-24T10:26:26.083Z,42.09
2016-05-24T10:27:25.947Z,42.09
2016-05-24T10:28:26.231Z,41.99
2016-05-24T10:29:26.156Z,41.71
2016-05-24T10:30:26.190Z,41.41
2016-05-24T10:31:26.209Z,41.51
2016-05-24T10:32:26.930Z,41.51
2016-05-24T10:33:26.262Z,41.03
2016-05-24T10:34:26.373Z,41.41
2016-05-24T10:35:26.313Z,41.51
2016-05-24T10:36:26.347Z,41.32
2016-05-24T10:37:27.240Z,41.32
2016-05-24T10:38:26.400Z,41.41
2016-05-24T10:39:26.434Z,41.32
2016-05-24T10:40:26.451Z,41.03
2016-05-24T10:41:26.486Z,40.74
2016-05-24T10:42:27.629Z,40.84
2016-05-24T10:43:26.538Z,40.76
2016-05-24T10:44:26.556Z,41.05
2016-05-24T10:45:26.762Z,41.14
2016-05-24T10:46:26.608Z,40.95
2016-05-24T10:47:28.299Z,41.05
2016-05-24T10:48:26.677Z,40.86
2016-05-24T10:49:26.695Z,40.95
2016-05-24T10:50:26.713Z,40.66
2016-05-24T10:51:26.747Z,41.05
2016-05-24T10:52:27.344Z,40.37
2016-05-24T10:53:26.846Z,40.37
2016-05-24T10:54:26.833Z,40.37
2016-05-24T10:55:26.866Z,40.28
2016-05-24T10:56:26.885Z,40.66
2016-05-24T10:57:26.919Z,40.57
2016-05-24T10:58:26.954Z,40.66
2016-05-24T10:59:26.956Z,40.86
2016-05-24T11:00:28.521Z,40.57
2016-05-24T11:01:27.023Z,39.99
2016-05-24T11:02:27.465Z,40.19
2016-05-24T11:03:27.076Z,39.99
2016-05-24T11:04:27.095Z,40.09
2016-05-24T11:05:26.973Z,39.99
2016-05-24T11:06:27.162Z,40.09
2016-05-24T11:07:27.524Z,39.79
2016-05-24T11:08:27.059Z,39.61
2016-05-24T11:09:27.248Z,39.7
2016-05-24T11:10:27.251Z,39.79
2016-05-24T11:11:27.285Z,39.99
2016-05-24T11:12:27.991Z,40.09
2016-05-24T11:13:27.431Z,39.79
2016-05-24T11:14:27.371Z,39.61
2016-05-24T11:15:27.468Z,40.09
2016-05-24T11:16:27.439Z,39.41
2016-05-24T11:17:27.550Z,39.14
2016-05-24T11:18:27.492Z,39.53
2016-05-24T11:19:27.510Z,39.34
2016-05-24T11:20:27.528Z,39.22
2016-05-24T11:21:27.562Z,39.24
2016-05-24T11:22:27.486Z,39.43
2016-05-24T11:23:27.614Z,39.12
2016-05-24T11:24:27.633Z,39.51
2016-05-24T11:25:27.666Z,39.12
2016-05-24T11:26:27.544Z,39.41
2016-05-24T11:27:27.719Z,39.41
2016-05-24T11:28:27.737Z,39.61
2016-05-24T11:29:28.068Z,40.09
2016-05-24T11:30:27.993Z,39.79
2016-05-24T11:31:27.839Z,39.79
2016-05-24T11:32:27.857Z,39.99
2016-05-24T11:33:27.891Z,39.99
2016-05-24T11:34:27.754Z,39.79
2016-05-24T11:35:27.944Z,39.7
2016-05-24T11:36:27.962Z,39.7
2016-05-24T11:37:27.995Z,39.51
2016-05-24T11:38:28.029Z,39.99
2016-05-24T11:39:28.032Z,39.89
2016-05-24T11:40:28.082Z,39.99
2016-05-24T11:41:27.944Z,40.09
2016-05-24T11:42:28.118Z,40.09
2016-05-24T11:43:28.153Z,39.99
2016-05-24T11:44:28.264Z,40.09
2016-05-24T11:45:28.048Z,39.99
2016-05-24T11:46:28.222Z,39.89
2016-05-24T11:47:28.256Z,39.89
2016-05-24T11:48:28.275Z,39.89
2016-05-24T11:49:28.309Z,39.99
2016-05-24T11:50:28.437Z,39.51
2016-05-24T11:51:28.362Z,39.61
2016-05-24T11:52:28.394Z,39.7
2016-05-24T11:53:28.430Z,39.79
2016-05-24T11:54:28.355Z,39.99
2016-05-24T11:55:28.466Z,40.09
2016-05-24T11:56:28.344Z,40.09
2016-05-24T11:57:28.362Z,39.31
2016-05-24T11:58:28.552Z,39.12
2016-05-24T11:59:28.586Z,39.12
2016-05-24T12:00:28.448Z,39.22
2016-05-24T12:01:28.623Z,39.34
2016-05-24T12:02:28.657Z,39.53
2016-05-24T12:03:28.674Z,39.04
2016-05-24T12:04:28.724Z,38.76
2016-05-24T12:05:28.743Z,38.85
2016-05-24T12:06:28.762Z,39.24
2016-05-24T12:07:28.795Z,38.76
2016-05-24T12:08:28.813Z,39.04
2016-05-24T12:09:28.848Z,38.95
2016-05-24T12:10:28.866Z,38.95
2016-05-24T12:11:28.743Z,39.14
2016-05-24T12:12:28.934Z,38.76
2016-05-24T12:13:28.951Z,38.76
2016-05-24T12:14:28.829Z,38.46
2016-05-24T12:15:29.770Z,38.76
2016-05-24T12:16:29.038Z,38.95
2016-05-24T12:17:28.916Z,38.76
2016-05-24T12:18:29.090Z,38.85
2016-05-24T12:19:29.109Z,38.76
2016-05-24T12:20:29.142Z,39.04
2016-05-24T12:21:29.160Z,38.66
2016-05-24T12:22:29.195Z,38.85
2016-05-24T12:23:29.072Z,38.66
2016-05-24T12:24:29.341Z,38.76
2016-05-24T12:25:29.265Z,38.85
2016-05-24T12:26:29.316Z,38.85
2016-05-24T12:27:29.333Z,38.95
2016-05-24T12:28:29.351Z,38.76
2016-05-24T12:29:29.229Z,38.56
2016-05-24T12:30:29.419Z,38.46
2016-05-24T12:31:29.282Z,38.37
2016-05-24T12:32:29.457Z,39.24
2016-05-24T12:33:29.334Z,38.76
2016-05-24T12:34:29.555Z,38.95
2016-05-24T12:35:29.543Z,38.95
2016-05-24T12:36:29.593Z,38.95
2016-05-24T12:37:29.610Z,38.95
2016-05-24T12:38:29.754Z,38.95
2016-05-24T12:39:29.506Z,39.04
2016-05-24T12:40:29.696Z,38.95
2016-05-24T12:41:29.715Z,38.95
2016-05-24T12:42:29.748Z,39.24
2016-05-24T12:43:29.611Z,39.14
2016-05-24T12:44:29.800Z,38.95
2016-05-24T12:45:30.366Z,39.34
2016-05-24T12:46:29.698Z,39.34
2016-05-24T12:47:29.981Z,38.66
2016-05-24T12:48:29.905Z,38.56
2016-05-24T12:49:30.048Z,38.66
2016-05-24T12:50:29.958Z,38.85
2016-05-24T12:51:29.976Z,38.76
2016-05-24T12:52:30.011Z,38.85
2016-05-24T12:53:30.028Z,38.56
2016-05-24T12:54:30.062Z,38.46
2016-05-24T12:55:30.097Z,38.37